createdAt,value
2019-02-10T00:00:40.328Z,7.74
2019-02-10T00:03:08.810Z,7.73
2019-02-10T00:05:37.364Z,7.73
2019-02-10T00:08:05.830Z,7.71
2019-02-10T00:10:34.364Z,7.68
2019-02-10T00:13:22.574Z,7.63
2019-02-10T00:15:51.043Z,7.58
2019-02-10T00:18:19.963Z,7.52
2019-02-10T00:20:48.528Z,7.48
2019-02-10T00:23:16.975Z,7.45
2019-02-10T00:25:45.444Z,7.41
2019-02-10T00:28:13.955Z,7.38
2019-02-10T00:30:42.684Z,7.34
2019-02-10T00:33:11.145Z,7.31
2019-02-10T00:35:39.662Z,7.28
2019-02-10T00:38:08.124Z,7.25
2019-02-10T00:40:36.599Z,7.22
2019-02-10T00:43:05.098Z,7.18
2019-02-10T00:45:33.565Z,7.14
2019-02-10T00:48:02.032Z,7.12
2019-02-10T00:50:30.544Z,7.10
2019-02-10T00:52:59.021Z,7.08
2019-02-10T00:55:27.500Z,7.04
2019-02-10T00:57:55.977Z,7.02
2019-02-10T01:00:24.600Z,6.98
2019-02-10T01:02:53.052Z,6.93
2019-02-10T01:05:21.551Z,6.89
2019-02-10T01:07:50.003Z,6.84
2019-02-10T01:10:20.034Z,6.79
2019-02-10T01:12:48.533Z,6.74
2019-02-10T01:15:16.988Z,6.69
2019-02-10T01:17:45.460Z,6.66
2019-02-10T01:20:14.138Z,6.63
2019-02-10T01:22:42.604Z,6.59
2019-02-10T01:25:11.138Z,6.55
2019-02-10T01:27:39.677Z,6.52
2019-02-10T01:30:11.275Z,6.49
2019-02-10T01:32:39.960Z,6.46
2019-02-10T01:35:08.547Z,6.44
2019-02-10T01:37:37.021Z,6.41
2019-02-10T01:40:07.819Z,6.40
2019-02-10T01:42:36.298Z,6.38
2019-02-10T01:45:07.385Z,6.36
2019-02-10T01:47:35.856Z,6.36
2019-02-10T01:50:06.302Z,6.35
2019-02-10T01:52:34.839Z,6.34
2019-02-10T01:55:03.483Z,6.32
2019-02-10T01:57:31.975Z,6.30
2019-02-10T02:00:00.431Z,6.30
2019-02-10T02:02:28.890Z,6.27
2019-02-10T02:04:57.400Z,6.27
2019-02-10T02:07:25.925Z,6.25
2019-02-10T02:09:54.390Z,6.26
2019-02-10T02:12:22.901Z,6.26
2019-02-10T02:14:51.359Z,6.26
2019-02-10T02:17:19.817Z,6.24
2019-02-10T02:19:48.608Z,6.23
2019-02-10T02:22:17.681Z,6.22
2019-02-10T02:24:46.144Z,6.22
2019-02-10T02:27:14.643Z,6.21
2019-02-10T02:29:43.107Z,6.20
2019-02-10T02:32:11.561Z,6.20
2019-02-10T02:34:40.421Z,6.20
2019-02-10T02:37:08.885Z,6.19
2019-02-10T02:39:37.359Z,6.18
2019-02-10T02:42:05.835Z,6.19
2019-02-10T02:44:34.277Z,6.19
2019-02-10T02:47:02.804Z,6.19
2019-02-10T02:49:31.303Z,6.20
2019-02-10T02:51:59.771Z,6.21
2019-02-10T02:54:28.224Z,6.21
2019-02-10T02:56:56.722Z,6.21
2019-02-10T02:59:25.179Z,6.20
2019-02-10T03:01:53.665Z,6.19
2019-02-10T03:04:22.139Z,6.18
2019-02-10T03:06:50.616Z,6.17
2019-02-10T03:09:19.086Z,6.18
2019-02-10T03:11:47.583Z,6.16
2019-02-10T03:14:16.056Z,6.16
2019-02-10T03:16:44.498Z,6.16
2019-02-10T03:19:12.980Z,6.17
2019-02-10T03:21:41.432Z,6.17
2019-02-10T03:24:09.891Z,6.17
2019-02-10T03:26:38.398Z,6.19
2019-02-10T03:29:06.851Z,6.18
2019-02-10T03:31:35.311Z,6.18
2019-02-10T03:34:03.797Z,6.16
2019-02-10T03:36:33.342Z,6.13
2019-02-10T03:39:01.791Z,6.12
2019-02-10T03:41:30.330Z,6.09
2019-02-10T03:43:58.780Z,6.06
2019-02-10T03:46:27.252Z,6.04
2019-02-10T03:48:55.757Z,6.02
2019-02-10T03:51:24.236Z,5.99
2019-02-10T03:53:52.696Z,5.99
2019-02-10T03:56:21.202Z,5.95
2019-02-10T03:58:49.642Z,5.95
2019-02-10T04:01:18.095Z,5.94
2019-02-10T04:03:46.580Z,5.93
2019-02-10T04:06:15.027Z,5.92
2019-02-10T04:08:43.489Z,5.92
2019-02-10T04:11:13.541Z,5.91
2019-02-10T04:13:42.003Z,5.91
2019-02-10T04:16:10.463Z,5.90
2019-02-10T04:18:38.999Z,5.90
2019-02-10T04:21:07.447Z,5.89
2019-02-10T04:23:35.900Z,5.87
2019-02-10T04:26:04.373Z,5.86
2019-02-10T04:28:32.833Z,5.84
2019-02-10T04:31:01.294Z,5.83
2019-02-10T04:33:29.796Z,5.82
2019-02-10T04:35:58.253Z,5.80
2019-02-10T04:38:27.736Z,5.79
2019-02-10T04:40:56.217Z,5.77
2019-02-10T04:43:24.668Z,5.74
2019-02-10T04:45:53.122Z,5.74
2019-02-10T04:48:21.605Z,5.72
2019-02-10T04:50:50.087Z,5.70
2019-02-10T04:53:18.509Z,5.69
2019-02-10T04:55:50.174Z,5.68
2019-02-10T04:58:18.623Z,5.67
2019-02-10T05:00:47.081Z,5.67
2019-02-10T05:03:15.576Z,5.68
2019-02-10T05:05:44.036Z,5.68
2019-02-10T05:08:12.488Z,5.69
2019-02-10T05:10:40.978Z,5.70
2019-02-10T05:13:09.426Z,5.73
2019-02-10T05:15:37.879Z,5.74
2019-02-10T05:18:06.368Z,5.76
2019-02-10T05:20:34.818Z,5.77
2019-02-10T05:23:03.264Z,5.78
2019-02-10T05:25:31.759Z,5.80
2019-02-10T05:28:00.220Z,5.83
2019-02-10T05:30:28.693Z,5.85
2019-02-10T05:32:57.179Z,5.88
2019-02-10T05:35:25.639Z,5.91
2019-02-10T05:37:54.105Z,5.91
2019-02-10T05:40:23.615Z,5.91
2019-02-10T05:42:52.051Z,5.93
2019-02-10T05:45:20.549Z,5.95
2019-02-10T05:47:49.058Z,5.96
2019-02-10T05:50:17.500Z,5.98
2019-02-10T05:52:46.107Z,5.98
2019-02-10T05:55:14.610Z,6.00
2019-02-10T05:57:43.078Z,6.01
2019-02-10T06:00:11.600Z,6.02
2019-02-10T06:02:40.150Z,6.04
2019-02-10T06:05:14.342Z,6.05
2019-02-10T06:07:42.789Z,6.05
2019-02-10T06:10:11.361Z,6.06
2019-02-10T06:12:39.905Z,6.10
2019-02-10T06:15:09.580Z,6.10
2019-02-10T06:17:38.082Z,6.12
2019-02-10T06:20:09.080Z,6.14
2019-02-10T06:22:37.554Z,6.16
2019-02-10T06:25:08.641Z,6.17
2019-02-10T06:27:37.112Z,6.19
2019-02-10T06:30:10.373Z,6.18
2019-02-10T06:32:38.875Z,6.19
2019-02-10T06:35:08.776Z,6.21
2019-02-10T06:37:37.226Z,6.22
2019-02-10T06:40:07.858Z,6.23
2019-02-10T06:42:37.375Z,6.25
2019-02-10T06:45:08.776Z,6.28
2019-02-10T06:47:37.277Z,6.31
2019-02-10T06:50:07.056Z,6.33
2019-02-10T06:52:35.525Z,6.36
2019-02-10T06:55:05.380Z,6.38
2019-02-10T06:57:33.832Z,6.41
2019-02-10T07:00:06.358Z,6.45
2019-02-10T07:02:39.662Z,6.48
2019-02-10T07:05:10.658Z,6.52
2019-02-10T07:07:39.116Z,6.53
2019-02-10T07:10:08.269Z,6.55
2019-02-10T07:12:49.591Z,6.58
2019-02-10T07:15:54.849Z,6.58
2019-02-10T07:19:00.023Z,6.61
2019-02-10T07:21:33.489Z,6.63
2019-02-10T07:24:05.186Z,6.65
2019-02-10T07:26:54.129Z,6.66
2019-02-10T07:29:50.179Z,6.67
2019-02-10T07:32:21.896Z,6.68
2019-02-10T07:35:13.116Z,6.70
2019-02-10T07:37:47.647Z,6.72
2019-02-10T07:40:46.684Z,6.72
2019-02-10T07:43:21.698Z,6.71
2019-02-10T07:46:11.386Z,6.71
2019-02-10T07:48:48.691Z,6.70
2019-02-10T07:51:25.763Z,6.71
2019-02-10T07:53:59.988Z,6.74
2019-02-10T07:56:31.622Z,6.75
2019-02-10T07:59:12.361Z,6.79
2019-02-10T08:01:49.566Z,6.82
2019-02-10T08:04:33.220Z,6.84
2019-02-10T08:07:10.772Z,6.89
2019-02-10T08:09:57.380Z,6.93
2019-02-10T08:12:55.904Z,6.99
2019-02-10T08:15:39.358Z,7.05
2019-02-10T08:18:31.376Z,7.09
2019-02-10T08:21:18.210Z,7.14
2019-02-10T08:24:14.758Z,7.20
2019-02-10T08:26:49.346Z,7.25
2019-02-10T08:29:35.865Z,7.29
2019-02-10T08:32:25.572Z,7.33
2019-02-10T08:34:59.865Z,7.35
2019-02-10T08:37:57.528Z,7.39
2019-02-10T08:40:41.108Z,7.40
2019-02-10T08:43:21.613Z,7.41
2019-02-10T08:46:12.915Z,7.41
2019-02-10T08:49:02.747Z,7.42
2019-02-10T08:51:40.222Z,7.47
2019-02-10T08:54:09.442Z,7.50
2019-02-10T08:56:37.889Z,7.55
2019-02-10T08:59:06.338Z,7.59
2019-02-10T09:01:34.822Z,7.64
2019-02-10T09:04:03.280Z,7.68
2019-02-10T09:06:31.754Z,7.71
2019-02-10T09:09:02.574Z,7.76
2019-02-10T09:11:30.442Z,7.80
2019-02-10T09:13:58.899Z,7.84
2019-02-10T09:16:27.376Z,7.86
2019-02-10T09:19:09.981Z,7.94
2019-02-10T09:21:38.486Z,7.90
2019-02-10T09:24:07.003Z,7.93
2019-02-10T09:26:35.455Z,7.93
2019-02-10T09:29:03.956Z,7.93
2019-02-10T09:31:33.228Z,7.92
2019-02-10T09:34:01.712Z,7.91
2019-02-10T09:36:30.185Z,7.90
2019-02-10T09:38:58.630Z,7.88
2019-02-10T09:41:27.082Z,7.89
2019-02-10T09:43:55.577Z,7.90
2019-02-10T09:46:25.085Z,7.94
2019-02-10T09:48:53.528Z,7.95
2019-02-10T09:51:22.095Z,7.98
2019-02-10T09:53:50.560Z,7.98
2019-02-10T09:56:19.005Z,7.97
2019-02-10T09:58:47.489Z,7.97
2019-02-10T10:01:15.961Z,7.97
2019-02-10T10:03:44.408Z,7.98
2019-02-10T10:06:12.908Z,7.99
2019-02-10T10:08:41.383Z,8.00
2019-02-10T10:11:09.823Z,8.00
2019-02-10T10:13:38.324Z,8.00
2019-02-10T10:16:06.776Z,7.98
2019-02-10T10:18:35.247Z,7.96
2019-02-10T10:21:03.718Z,7.91
2019-02-10T10:23:32.177Z,7.87
2019-02-10T10:26:00.610Z,7.87
2019-02-10T10:28:29.128Z,7.85
2019-02-10T10:30:57.591Z,7.81
2019-02-10T10:33:26.048Z,7.79
2019-02-10T10:35:54.549Z,7.77
2019-02-10T10:38:22.992Z,7.74
2019-02-10T10:40:51.438Z,7.71
2019-02-10T10:43:19.926Z,7.67
2019-02-10T10:45:48.377Z,7.64
2019-02-10T10:48:17.021Z,7.63
2019-02-10T10:50:45.614Z,7.60
2019-02-10T10:53:14.059Z,7.59
2019-02-10T10:55:42.837Z,7.58
2019-02-10T10:58:11.250Z,7.58
2019-02-10T11:00:39.707Z,7.60
2019-02-10T11:03:08.159Z,7.59
2019-02-10T11:05:36.656Z,7.58
2019-02-10T11:08:05.107Z,7.58
2019-02-10T11:10:33.549Z,7.56
2019-02-10T11:13:02.022Z,7.57
2019-02-10T11:15:30.469Z,7.57
2019-02-10T11:17:58.917Z,7.55
2019-02-10T11:20:27.397Z,7.57
2019-02-10T11:22:55.892Z,7.58
2019-02-10T11:25:24.300Z,7.55
2019-02-10T11:27:52.800Z,7.52
2019-02-10T11:30:21.326Z,7.51
2019-02-10T11:32:49.770Z,7.49
2019-02-10T11:35:18.244Z,7.48
2019-02-10T11:37:46.694Z,7.47
2019-02-10T11:40:15.178Z,7.49
2019-02-10T11:42:43.668Z,7.49
2019-02-10T11:45:13.859Z,7.49
2019-02-10T11:47:42.326Z,7.47
2019-02-10T11:50:12.577Z,7.46
2019-02-10T11:52:41.030Z,7.47
2019-02-10T11:55:10.318Z,7.46
2019-02-10T11:57:38.810Z,7.48
2019-02-10T12:00:16.142Z,7.50
2019-02-10T12:02:44.619Z,7.51
2019-02-10T12:05:13.071Z,7.52
2019-02-10T12:07:41.523Z,7.54
2019-02-10T12:10:13.937Z,7.57
2019-02-10T12:12:42.359Z,7.61
2019-02-10T12:15:13.331Z,7.63
2019-02-10T12:17:41.807Z,7.64
2019-02-10T12:20:14.530Z,7.65
2019-02-10T12:22:49.901Z,7.68
2019-02-10T12:25:13.163Z,7.67
2019-02-10T12:27:41.612Z,7.68
2019-02-10T12:30:13.232Z,7.72
2019-02-10T12:32:45.017Z,7.77
2019-02-10T12:35:13.570Z,7.81
2019-02-10T12:37:42.009Z,7.83
2019-02-10T12:40:15.146Z,7.85
2019-02-10T12:42:43.630Z,7.86
2019-02-10T12:45:13.914Z,7.86
2019-02-10T12:47:42.486Z,7.86
2019-02-10T12:50:17.115Z,7.86
2019-02-10T12:52:45.687Z,7.88
2019-02-10T12:55:14.400Z,7.90
2019-02-10T12:57:42.832Z,7.91
2019-02-10T13:00:20.896Z,7.95
2019-02-10T13:02:52.278Z,7.98
2019-02-10T13:05:20.759Z,8.01
2019-02-10T13:07:49.240Z,8.04
2019-02-10T13:10:18.447Z,8.06
2019-02-10T13:12:48.025Z,8.08
2019-02-10T13:15:16.627Z,8.12
2019-02-10T13:17:45.074Z,8.17
2019-02-10T13:20:13.932Z,8.20
2019-02-10T13:22:42.526Z,8.23
2019-02-10T13:25:12.109Z,8.26
2019-02-10T13:27:40.663Z,8.28
2019-02-10T13:30:33.889Z,8.29
2019-02-10T13:33:02.446Z,8.31
2019-02-10T13:35:30.892Z,8.33
2019-02-10T13:37:59.368Z,8.34
2019-02-10T13:40:27.952Z,8.34
2019-02-10T13:42:56.413Z,8.35
2019-02-10T13:45:24.906Z,8.34
2019-02-10T13:47:53.396Z,8.35
2019-02-10T13:50:21.848Z,8.35
2019-02-10T13:52:50.343Z,8.37
2019-02-10T13:55:19.025Z,8.39
2019-02-10T13:57:47.493Z,8.41
2019-02-10T14:00:21.184Z,8.43
2019-02-10T14:02:49.641Z,8.44
2019-02-10T14:05:18.087Z,8.46
2019-02-10T14:07:46.640Z,8.43
2019-02-10T14:10:24.904Z,8.43
2019-02-10T14:12:46.537Z,8.44
2019-02-10T14:15:16.465Z,8.44
2019-02-10T14:17:44.940Z,8.44
2019-02-10T14:20:15.867Z,8.45
2019-02-10T14:22:44.352Z,8.45
2019-02-10T14:25:12.785Z,8.44
2019-02-10T14:27:41.256Z,8.44
2019-02-10T14:30:16.989Z,8.46
2019-02-10T14:32:45.698Z,8.47
2019-02-10T14:35:14.143Z,8.48
2019-02-10T14:37:42.618Z,8.48
2019-02-10T14:40:11.200Z,8.50
2019-02-10T14:42:39.659Z,8.51
2019-02-10T14:45:10.865Z,8.52
2019-02-10T14:47:39.364Z,8.53
2019-02-10T14:50:13.313Z,8.53
2019-02-10T14:52:41.846Z,8.54
2019-02-10T14:55:10.468Z,8.56
2019-02-10T14:57:39.300Z,8.56
2019-02-10T15:00:15.593Z,8.57
2019-02-10T15:02:44.412Z,8.56
2019-02-10T15:05:12.868Z,8.57
2019-02-10T15:07:41.510Z,8.56
2019-02-10T15:10:21.018Z,8.57
2019-02-10T15:12:49.512Z,8.58
2019-02-10T15:15:17.970Z,8.59
2019-02-10T15:17:46.454Z,8.60
2019-02-10T15:20:15.100Z,8.61
2019-02-10T15:22:43.550Z,8.60
2019-02-10T15:25:13.159Z,8.61
2019-02-10T15:27:41.662Z,8.61
2019-02-10T15:30:13.272Z,8.63
2019-02-10T15:32:41.756Z,8.65
2019-02-10T15:35:10.834Z,8.64
2019-02-10T15:37:39.302Z,8.64
2019-02-10T15:40:10.030Z,8.64
2019-02-10T15:42:38.511Z,8.64
2019-02-10T15:45:10.176Z,8.62
2019-02-10T15:47:38.654Z,8.61
2019-02-10T15:50:10.356Z,8.62
2019-02-10T15:52:38.826Z,8.61
2019-02-10T15:55:09.721Z,8.62
2019-02-10T15:57:38.208Z,8.62
2019-02-10T16:00:10.062Z,8.62
2019-02-10T16:02:38.497Z,8.63
2019-02-10T16:05:07.006Z,8.65
2019-02-10T16:07:35.447Z,8.66
2019-02-10T16:10:05.052Z,8.67
2019-02-10T16:12:33.547Z,8.67
2019-02-10T16:15:02.021Z,8.67
2019-02-10T16:17:30.473Z,8.67
2019-02-10T16:19:58.935Z,8.69
2019-02-10T16:22:27.377Z,8.69
2019-02-10T16:24:55.899Z,8.69
2019-02-10T16:27:24.483Z,8.69
2019-02-10T16:29:53.169Z,8.70
2019-02-10T16:32:21.656Z,8.69
2019-02-10T16:34:50.142Z,8.70
2019-02-10T16:37:18.597Z,8.70
2019-02-10T16:39:47.038Z,8.70
2019-02-10T16:42:15.536Z,8.68
2019-02-10T16:44:44.038Z,8.67
2019-02-10T16:47:12.480Z,8.67
2019-02-10T16:49:40.979Z,8.67
2019-02-10T16:52:09.434Z,8.66
2019-02-10T16:54:37.907Z,8.68
2019-02-10T16:57:06.392Z,8.68
2019-02-10T16:59:34.852Z,8.68
2019-02-10T17:02:03.465Z,8.71
2019-02-10T17:04:31.963Z,8.74
2019-02-10T17:07:00.429Z,8.77
2019-02-10T17:09:28.885Z,8.78
2019-02-10T17:11:57.374Z,8.79
2019-02-10T17:14:26.240Z,8.81
2019-02-10T17:16:54.778Z,8.83
2019-02-10T17:19:24.572Z,8.83
2019-02-10T17:21:53.046Z,8.84
2019-02-10T17:24:21.579Z,8.86
2019-02-10T17:26:50.058Z,8.86
2019-02-10T17:29:18.522Z,8.87
2019-02-10T17:31:46.977Z,8.88
2019-02-10T17:34:15.470Z,8.87
2019-02-10T17:36:43.966Z,8.87
2019-02-10T17:39:13.257Z,8.90
2019-02-10T17:41:41.816Z,8.90
2019-02-10T17:44:10.344Z,8.90
2019-02-10T17:46:38.780Z,8.90
2019-02-10T17:49:07.263Z,8.93
2019-02-10T17:51:35.725Z,8.95
2019-02-10T17:54:04.240Z,8.93
2019-02-10T17:56:32.713Z,8.93
2019-02-10T17:59:01.183Z,8.91
2019-02-10T18:01:29.721Z,8.87
2019-02-10T18:03:58.471Z,8.83
2019-02-10T18:06:26.928Z,8.80
2019-02-10T18:08:55.366Z,8.76
2019-02-10T18:11:30.959Z,8.73
2019-02-10T18:13:54.032Z,8.71
2019-02-10T18:16:39.353Z,8.69
2019-02-10T18:19:24.065Z,8.68
2019-02-10T18:21:54.191Z,8.65
2019-02-10T18:24:26.723Z,8.65
2019-02-10T18:26:56.799Z,8.63
2019-02-10T18:29:42.807Z,8.62
2019-02-10T18:32:24.617Z,8.60
2019-02-10T18:34:54.770Z,8.61
2019-02-10T18:37:30.541Z,8.62
2019-02-10T18:40:16.878Z,8.62
2019-02-10T18:42:46.955Z,8.63
2019-02-10T18:45:17.122Z,8.63
2019-02-10T18:47:49.729Z,8.63
2019-02-10T18:50:25.958Z,8.63
2019-02-10T18:52:56.076Z,8.62
2019-02-10T18:55:42.549Z,8.61
2019-02-10T18:58:15.710Z,8.62
2019-02-10T19:01:01.123Z,8.61
2019-02-10T19:03:31.265Z,8.61
2019-02-10T19:06:11.420Z,8.61
2019-02-10T19:08:41.543Z,8.62
2019-02-10T19:11:14.518Z,8.62
2019-02-10T19:14:00.589Z,8.62
2019-02-10T19:16:42.602Z,8.63
2019-02-10T19:19:18.638Z,8.63
2019-02-10T19:21:48.732Z,8.65
2019-02-10T19:24:21.824Z,8.66
2019-02-10T19:26:51.961Z,8.67
2019-02-10T19:29:38.289Z,8.68
2019-02-10T19:32:14.480Z,8.67
2019-02-10T19:34:44.540Z,8.66
2019-02-10T19:37:14.628Z,8.66
2019-02-10T19:39:44.752Z,8.65
2019-02-10T19:42:14.853Z,8.65
2019-02-10T19:44:57.225Z,8.64
2019-02-10T19:47:27.320Z,8.63
2019-02-10T19:50:09.472Z,8.64
2019-02-10T19:52:48.102Z,8.66
2019-02-10T19:55:20.754Z,8.65
2019-02-10T19:57:56.824Z,8.65
2019-02-10T20:00:43.419Z,8.67
2019-02-10T20:03:29.763Z,8.68
2019-02-10T20:06:02.830Z,8.69
2019-02-10T20:08:33.184Z,8.69
2019-02-10T20:11:09.444Z,8.71
2019-02-10T20:13:48.759Z,8.71
2019-02-10T20:16:18.878Z,8.70
2019-02-10T20:18:51.649Z,8.68
2019-02-10T20:21:21.721Z,8.64
2019-02-10T20:23:51.866Z,8.59
2019-02-10T20:26:31.092Z,8.54
2019-02-10T20:29:07.455Z,8.50
2019-02-10T20:31:43.495Z,8.48
2019-02-10T20:34:16.309Z,8.46
2019-02-10T20:36:49.372Z,8.46
2019-02-10T20:39:34.780Z,8.47
2019-02-10T20:42:12.153Z,8.47
2019-02-10T20:44:52.868Z,8.46
2019-02-10T20:47:22.974Z,8.47
2019-02-10T20:50:02.149Z,8.47
2019-02-10T20:52:46.188Z,8.47
2019-02-10T20:55:12.902Z,8.46
2019-02-10T20:57:42.986Z,8.43
2019-02-10T21:00:18.681Z,8.42
2019-02-10T21:02:54.521Z,8.42
2019-02-10T21:05:24.659Z,8.41
2019-02-10T21:07:54.746Z,8.40
2019-02-10T21:10:26.796Z,8.41
2019-02-10T21:12:56.917Z,8.41
2019-02-10T21:15:27.011Z,8.42
2019-02-10T21:18:03.037Z,8.41
2019-02-10T21:20:34.506Z,8.42
2019-02-10T21:23:19.395Z,8.43
2019-02-10T21:26:04.516Z,8.42
2019-02-10T21:28:37.617Z,8.42
2019-02-10T21:31:07.721Z,8.42
2019-02-10T21:33:43.603Z,8.43
2019-02-10T21:36:13.691Z,8.42
2019-02-10T21:38:43.920Z,8.42
2019-02-10T21:41:14.044Z,8.43
2019-02-10T21:43:44.136Z,8.43
2019-02-10T21:46:14.237Z,8.44
2019-02-10T21:48:44.369Z,8.44
2019-02-10T21:51:12.825Z,8.44
2019-02-10T21:53:41.285Z,8.44
2019-02-10T21:56:09.771Z,8.44
2019-02-10T21:58:38.223Z,8.44
2019-02-10T22:01:06.665Z,8.43
2019-02-10T22:03:35.160Z,8.42
2019-02-10T22:06:03.615Z,8.42
2019-02-10T22:08:32.074Z,8.41
2019-02-10T22:11:00.702Z,8.42
2019-02-10T22:13:29.160Z,8.42
2019-02-10T22:15:57.610Z,8.45
2019-02-10T22:18:26.223Z,8.47
2019-02-10T22:20:54.614Z,8.50
2019-02-10T22:23:23.050Z,8.51
2019-02-10T22:25:51.524Z,8.52
2019-02-10T22:28:19.967Z,8.53
2019-02-10T22:30:48.413Z,8.52
2019-02-10T22:33:16.910Z,8.52
2019-02-10T22:35:45.360Z,8.51
2019-02-10T22:38:13.816Z,8.51
2019-02-10T22:40:42.324Z,8.48
2019-02-10T22:43:10.763Z,8.48
2019-02-10T22:45:39.194Z,8.46
2019-02-10T22:48:07.675Z,8.40
2019-02-10T22:50:36.127Z,8.32
2019-02-10T22:53:04.568Z,8.21
2019-02-10T22:55:33.058Z,8.13
2019-02-10T22:58:01.491Z,8.03
2019-02-10T23:00:48.282Z,7.92
2019-02-10T23:03:16.774Z,7.82
2019-02-10T23:05:45.293Z,7.70
2019-02-10T23:08:13.794Z,7.64
2019-02-10T23:10:42.239Z,7.60
2019-02-10T23:13:11.699Z,7.57
2019-02-10T23:15:40.178Z,7.56
2019-02-10T23:18:08.635Z,7.57
2019-02-10T23:20:37.135Z,7.57
2019-02-10T23:23:05.636Z,7.58
2019-02-10T23:25:34.081Z,7.59
2019-02-10T23:28:02.540Z,7.58
2019-02-10T23:30:31.013Z,7.58
2019-02-10T23:32:59.463Z,7.55
2019-02-10T23:35:27.936Z,7.55
2019-02-10T23:37:56.424Z,7.54
2019-02-10T23:40:24.891Z,7.54
2019-02-10T23:42:53.327Z,7.52
2019-02-10T23:45:21.807Z,7.51
2019-02-10T23:47:50.264Z,7.49
2019-02-10T23:50:18.721Z,7.46
2019-02-10T23:52:47.225Z,7.42
2019-02-10T23:55:15.676Z,7.39
2019-02-10T23:57:44.133Z,7.34
